createdAt,value
2019-02-28T00:00:03.158Z,71.00
2019-02-28T00:02:31.430Z,71.20
2019-02-28T00:04:59.715Z,71.60
2019-02-28T00:07:27.991Z,71.60
2019-02-28T00:09:57.381Z,71.70
2019-02-28T00:12:24.606Z,71.80
2019-02-28T00:14:52.890Z,71.50
2019-02-28T00:17:21.182Z,71.10
2019-02-28T00:19:49.471Z,70.80
2019-02-28T00:22:19.253Z,71.50
2019-02-28T00:24:47.642Z,71.50
2019-02-28T00:27:20.975Z,72.10
2019-02-28T00:29:44.160Z,73.20
2019-02-28T00:32:13.271Z,73.80
2019-02-28T00:34:41.544Z,73.80
2019-02-28T00:37:09.935Z,73.40
2019-02-28T00:39:38.302Z,72.60
2019-02-28T00:42:06.583Z,72.40
2019-02-28T00:44:34.832Z,71.70
2019-02-28T00:47:03.942Z,71.60
2019-02-28T00:49:32.219Z,71.50
2019-02-28T00:52:01.573Z,71.90
2019-02-28T00:54:28.767Z,72.20
2019-02-28T00:56:57.047Z,71.80
2019-02-28T00:59:25.318Z,71.70
2019-02-28T01:01:53.603Z,71.40
2019-02-28T01:04:21.849Z,71.40
2019-02-28T01:06:50.120Z,71.30
2019-02-28T01:09:19.219Z,71.30
2019-02-28T01:11:47.520Z,71.20
2019-02-28T01:14:15.774Z,71.40
2019-02-28T01:16:44.074Z,71.40
2019-02-28T01:19:12.454Z,71.10
2019-02-28T01:21:40.751Z,70.90
2019-02-28T01:24:09.103Z,71.20
2019-02-28T01:26:37.498Z,71.10
2019-02-28T01:29:05.870Z,70.90
2019-02-28T01:31:34.157Z,70.70
2019-02-28T01:34:02.423Z,70.90
2019-02-28T01:36:30.700Z,70.80
2019-02-28T01:38:59.058Z,70.70
2019-02-28T01:41:27.347Z,70.20
2019-02-28T01:43:55.711Z,69.70
2019-02-28T01:46:23.987Z,69.40
2019-02-28T01:48:54.553Z,69.00
2019-02-28T01:51:20.550Z,68.60
2019-02-28T01:53:50.487Z,69.10
2019-02-28T01:56:17.195Z,69.70
2019-02-28T01:58:47.594Z,69.60
2019-02-28T02:01:13.947Z,69.30
2019-02-28T02:03:42.235Z,69.10
2019-02-28T02:06:10.499Z,69.50
2019-02-28T02:08:38.759Z,69.70
2019-02-28T02:11:07.875Z,70.60
2019-02-28T02:13:36.835Z,70.60
2019-02-28T02:16:04.529Z,70.60
2019-02-28T02:18:32.773Z,71.00
2019-02-28T02:21:01.794Z,71.40
2019-02-28T02:23:30.175Z,71.40
2019-02-28T02:25:58.445Z,71.50
2019-02-28T02:28:27.826Z,71.50
2019-02-28T02:30:54.963Z,71.90
2019-02-28T02:33:23.986Z,73.00
2019-02-28T02:35:52.259Z,72.90
2019-02-28T02:38:20.539Z,73.10
2019-02-28T02:40:48.811Z,73.30
2019-02-28T02:43:17.101Z,73.00
2019-02-28T02:45:45.360Z,72.90
2019-02-28T02:48:13.641Z,72.80
2019-02-28T02:50:41.900Z,72.40
2019-02-28T02:53:10.171Z,72.60
2019-02-28T02:55:38.439Z,72.40
2019-02-28T02:58:06.739Z,72.20
2019-02-28T03:00:34.983Z,71.90
2019-02-28T03:03:06.136Z,72.60
2019-02-28T03:05:35.951Z,72.60
2019-02-28T03:08:01.130Z,72.90
2019-02-28T03:10:28.926Z,72.70
2019-02-28T03:12:57.199Z,72.50
2019-02-28T03:15:27.176Z,72.70
2019-02-28T03:17:53.879Z,72.80
2019-02-28T03:20:22.248Z,72.80
2019-02-28T03:22:50.524Z,72.90
2019-02-28T03:25:18.821Z,73.40
2019-02-28T03:27:47.095Z,73.60
2019-02-28T03:30:28.422Z,73.40
2019-02-28T03:32:46.592Z,72.50
2019-02-28T03:35:15.592Z,72.50
2019-02-28T03:37:43.899Z,72.50
2019-02-28T03:40:13.657Z,73.20
2019-02-28T03:42:41.976Z,73.20
2019-02-28T03:45:10.932Z,73.10
2019-02-28T03:47:39.329Z,73.30
2019-02-28T03:50:07.585Z,73.20
2019-02-28T03:52:42.082Z,72.90
2019-02-28T03:55:04.742Z,73.40
2019-02-28T03:57:32.407Z,73.20
2019-02-28T04:00:00.691Z,72.50
2019-02-28T04:02:28.960Z,72.10
2019-02-28T04:04:57.244Z,71.90
2019-02-28T04:07:26.231Z,71.60
2019-02-28T04:09:54.508Z,71.70
2019-02-28T04:12:22.779Z,72.00
2019-02-28T04:14:51.054Z,72.30
2019-02-28T04:17:19.318Z,72.50
2019-02-28T04:19:47.607Z,72.40
2019-02-28T04:22:19.494Z,72.50
2019-02-28T04:24:46.344Z,73.00
2019-02-28T04:27:12.423Z,73.20
2019-02-28T04:29:40.697Z,73.40
2019-02-28T04:32:08.966Z,73.50
2019-02-28T04:34:37.371Z,74.00
2019-02-28T04:37:08.565Z,74.40
2019-02-28T04:39:34.008Z,74.50
2019-02-28T04:42:05.001Z,74.60
2019-02-28T04:44:30.553Z,74.60
2019-02-28T04:46:58.839Z,74.80
2019-02-28T04:49:27.220Z,75.20
2019-02-28T04:51:55.754Z,75.30
2019-02-28T04:54:24.625Z,75.40
2019-02-28T04:56:52.464Z,75.80
2019-02-28T04:59:20.731Z,76.00
2019-02-28T05:01:49.016Z,76.50
2019-02-28T05:04:17.379Z,76.60
2019-02-28T05:06:45.760Z,76.30
2019-02-28T05:09:14.487Z,76.20
2019-02-28T05:11:42.412Z,76.50
2019-02-28T05:14:10.691Z,76.30
2019-02-28T05:16:38.934Z,76.00
2019-02-28T05:19:07.952Z,77.70
2019-02-28T05:21:36.236Z,77.00
2019-02-28T05:24:07.679Z,77.50
2019-02-28T05:26:32.985Z,77.60
2019-02-28T05:29:01.237Z,77.30
2019-02-28T05:31:30.248Z,77.60
2019-02-28T05:37:00.592Z,79.40
2019-02-28T05:39:30.964Z,79.40
2019-02-28T05:41:57.255Z,80.80
2019-02-28T05:44:25.513Z,80.30
2019-02-28T05:46:57.595Z,79.20
2019-02-28T05:49:22.583Z,79.00
2019-02-28T05:51:51.068Z,78.50
2019-02-28T05:54:19.346Z,78.50
2019-02-28T05:56:48.055Z,78.60
2019-02-28T05:59:17.128Z,81.30
2019-02-28T06:01:47.055Z,80.60
2019-02-28T06:04:14.547Z,82.30
2019-02-28T06:06:42.863Z,82.30
2019-02-28T06:09:13.686Z,81.40
2019-02-28T06:11:39.539Z,81.60
2019-02-28T06:14:07.906Z,81.90
2019-02-28T06:16:36.253Z,80.60
2019-02-28T06:19:08.118Z,79.70
2019-02-28T06:21:32.835Z,78.70
2019-02-28T06:24:01.127Z,77.90
2019-02-28T06:26:31.918Z,77.60
2019-02-28T06:28:58.575Z,76.50
2019-02-28T06:31:26.976Z,76.50
2019-02-28T06:33:55.328Z,75.60
2019-02-28T06:36:25.730Z,75.00
2019-02-28T06:38:54.554Z,73.80
2019-02-28T06:41:20.364Z,72.60
2019-02-28T06:43:50.243Z,71.70
2019-02-28T06:46:16.951Z,70.80
2019-02-28T06:48:46.008Z,69.70
2019-02-28T06:51:16.824Z,69.70
2019-02-28T06:53:42.755Z,70.40
2019-02-28T06:56:11.019Z,69.10
2019-02-28T06:58:39.300Z,68.40
2019-02-28T07:01:07.600Z,67.50
2019-02-28T07:03:38.811Z,66.90
2019-02-28T07:06:04.241Z,66.10
2019-02-28T07:08:32.520Z,65.80
2019-02-28T07:11:00.943Z,65.80
2019-02-28T07:13:29.197Z,64.80
2019-02-28T07:15:59.106Z,64.30
2019-02-28T07:18:26.522Z,62.70
2019-02-28T07:20:54.925Z,62.60
2019-02-28T07:23:23.204Z,61.50
2019-02-28T07:25:52.444Z,60.60
2019-02-28T07:28:19.908Z,60.10
2019-02-28T07:30:50.305Z,59.60
2019-02-28T07:33:16.491Z,59.70
2019-02-28T07:35:44.784Z,59.40
2019-02-28T07:38:13.058Z,58.70
2019-02-28T07:40:41.479Z,58.50
2019-02-28T07:43:13.041Z,58.00
2019-02-28T07:45:38.795Z,57.40
2019-02-28T07:48:07.048Z,57.00
2019-02-28T07:50:35.333Z,56.60
2019-02-28T07:53:05.554Z,56.30
2019-02-28T07:55:32.006Z,56.30
2019-02-28T07:58:00.376Z,54.80
2019-02-28T08:00:28.664Z,51.60
2019-02-28T08:02:57.035Z,49.80
2019-02-28T08:05:29.689Z,47.90
2019-02-28T08:07:53.639Z,46.50
2019-02-28T08:10:22.707Z,45.90
2019-02-28T08:12:51.051Z,44.70
2019-02-28T08:15:22.730Z,44.00
2019-02-28T08:17:50.363Z,43.30
2019-02-28T08:20:18.643Z,42.70
2019-02-28T08:22:47.024Z,41.70
2019-02-28T08:25:15.404Z,41.30
2019-02-28T08:27:43.779Z,40.50
2019-02-28T08:30:21.070Z,40.00
2019-02-28T08:32:49.457Z,39.30
2019-02-28T08:35:17.710Z,38.40
2019-02-28T08:37:46.010Z,37.80
2019-02-28T08:40:17.069Z,38.30
2019-02-28T08:42:45.340Z,37.40
2019-02-28T08:45:13.637Z,37.20
2019-02-28T08:47:42.706Z,36.30
2019-02-28T08:50:12.744Z,36.20
2019-02-28T08:52:42.241Z,36.30
2019-02-28T08:55:10.175Z,36.20
2019-02-28T08:57:38.476Z,35.60
2019-02-28T09:00:08.291Z,35.10
2019-02-28T09:02:37.372Z,34.40
2019-02-28T09:05:06.735Z,34.40
2019-02-28T09:07:34.118Z,35.00
2019-02-28T09:10:02.437Z,33.90
2019-02-28T09:12:33.277Z,34.30
2019-02-28T09:14:59.133Z,33.30
2019-02-28T09:17:27.542Z,33.80
2019-02-28T09:19:55.817Z,33.60
2019-02-28T09:22:27.478Z,32.00
2019-02-28T09:24:53.271Z,31.30
2019-02-28T09:27:21.580Z,31.90
2019-02-28T09:29:54.520Z,31.30
2019-02-28T09:32:18.199Z,30.80
2019-02-28T09:34:46.774Z,30.60
2019-02-28T09:37:15.075Z,30.90
2019-02-28T09:39:44.138Z,30.80
2019-02-28T09:42:15.705Z,30.80
2019-02-28T09:44:41.510Z,32.30
2019-02-28T09:47:11.768Z,31.60
2019-02-28T09:49:38.969Z,30.50
2019-02-28T09:52:07.406Z,30.50
2019-02-28T09:54:35.681Z,30.50
2019-02-28T09:57:03.966Z,30.10
2019-02-28T09:59:37.345Z,30.50
2019-02-28T10:02:01.635Z,30.00
2019-02-28T10:04:30.491Z,30.70
2019-02-28T10:06:57.328Z,30.90
2019-02-28T10:09:25.633Z,31.70
2019-02-28T10:11:54.696Z,30.80
2019-02-28T10:14:25.752Z,30.80
2019-02-28T10:16:52.632Z,31.60
2019-02-28T10:19:19.656Z,31.60
2019-02-28T10:21:51.863Z,30.80
2019-02-28T10:24:16.990Z,29.70
2019-02-28T10:26:48.175Z,29.70
2019-02-28T10:29:15.118Z,29.60
2019-02-28T10:31:44.155Z,29.70
2019-02-28T10:34:12.463Z,29.60
2019-02-28T10:36:40.824Z,29.00
2019-02-28T10:39:09.750Z,29.30
2019-02-28T10:41:37.571Z,29.40
2019-02-28T10:44:05.955Z,29.40
2019-02-28T10:46:36.027Z,29.50
2019-02-28T10:49:02.619Z,29.00
2019-02-28T10:51:30.892Z,29.20
2019-02-28T10:53:59.192Z,29.30
2019-02-28T10:56:31.747Z,29.20
2019-02-28T10:58:56.640Z,29.70
2019-02-28T11:01:24.926Z,28.40
2019-02-28T11:03:53.234Z,29.20
2019-02-28T11:06:21.534Z,28.40
2019-02-28T11:08:49.831Z,27.70
2019-02-28T11:11:18.134Z,27.70
2019-02-28T11:13:47.219Z,27.70
2019-02-28T11:16:15.496Z,27.60
2019-02-28T11:18:43.858Z,27.70
2019-02-28T11:21:12.151Z,28.30
2019-02-28T11:23:40.508Z,27.90
2019-02-28T11:26:09.528Z,28.30
2019-02-28T11:28:37.891Z,27.60
2019-02-28T11:31:06.183Z,27.60
2019-02-28T11:33:36.460Z,28.50
2019-02-28T11:36:03.515Z,28.50
2019-02-28T11:38:31.891Z,28.00
2019-02-28T11:41:00.211Z,28.30
2019-02-28T11:43:29.273Z,27.80
2019-02-28T11:46:01.020Z,27.70
2019-02-28T11:48:25.893Z,27.70
2019-02-28T11:50:54.249Z,28.20
2019-02-28T11:53:22.580Z,27.90
2019-02-28T11:55:53.360Z,28.50
2019-02-28T11:58:19.944Z,27.80
2019-02-28T12:00:48.315Z,27.70
2019-02-28T12:03:16.620Z,27.50
2019-02-28T12:05:50.083Z,28.20
2019-02-28T12:08:14.420Z,28.20
2019-02-28T12:10:43.489Z,28.30
2019-02-28T12:13:11.780Z,28.30
2019-02-28T12:15:40.940Z,28.10
2019-02-28T12:18:09.324Z,27.50
2019-02-28T12:20:37.695Z,27.30
2019-02-28T12:23:05.992Z,28.10
2019-02-28T12:25:34.271Z,28.90
2019-02-28T12:28:05.699Z,29.10
2019-02-28T12:30:31.002Z,28.30
2019-02-28T12:32:59.299Z,27.30
2019-02-28T12:35:27.683Z,27.90
2019-02-28T12:37:56.753Z,28.40
2019-02-28T12:40:28.758Z,28.40
2019-02-28T12:42:57.836Z,28.40
2019-02-28T12:45:29.152Z,28.40
2019-02-28T12:47:57.545Z,29.10
2019-02-28T12:50:29.283Z,29.70
2019-02-28T12:52:54.201Z,30.00
2019-02-28T12:55:22.580Z,30.00
2019-02-28T12:57:51.700Z,29.90
2019-02-28T13:00:23.297Z,30.80
2019-02-28T13:02:51.099Z,31.70
2019-02-28T13:05:19.393Z,32.80
2019-02-28T13:07:48.597Z,33.30
2019-02-28T13:10:17.690Z,33.00
2019-02-28T13:12:48.928Z,32.90
2019-02-28T13:15:15.037Z,32.50
2019-02-28T13:17:43.319Z,32.50
2019-02-28T13:20:13.181Z,32.90
2019-02-28T13:22:41.471Z,32.90
2019-02-28T13:25:11.770Z,32.70
2019-02-28T13:27:38.071Z,33.10
2019-02-28T13:30:10.640Z,33.30
2019-02-28T13:32:38.218Z,33.30
2019-02-28T13:35:07.491Z,33.50
2019-02-28T13:37:33.906Z,32.70
2019-02-28T13:40:04.349Z,32.50
2019-02-28T13:42:30.488Z,32.70
2019-02-28T13:44:59.545Z,32.20
2019-02-28T13:47:27.892Z,32.20
2019-02-28T13:49:56.163Z,32.50
2019-02-28T13:52:24.468Z,31.60
2019-02-28T13:54:52.766Z,32.30
2019-02-28T13:57:21.065Z,32.60
2019-02-28T13:59:50.216Z,32.90
2019-02-28T14:02:18.544Z,32.80
2019-02-28T14:04:47.405Z,32.30
2019-02-28T14:07:15.667Z,32.40
2019-02-28T14:09:43.951Z,32.10
2019-02-28T14:12:12.312Z,32.10
2019-02-28T14:14:42.415Z,31.90
2019-02-28T14:17:08.927Z,31.70
2019-02-28T14:19:37.223Z,32.20
2019-02-28T14:22:08.521Z,32.40
2019-02-28T14:24:33.989Z,32.20
2019-02-28T14:27:02.378Z,31.80
2019-02-28T14:29:30.654Z,31.80
2019-02-28T14:31:58.958Z,31.90
2019-02-28T14:34:28.012Z,32.50
2019-02-28T14:36:56.328Z,32.60
2019-02-28T14:39:25.489Z,32.50
2019-02-28T14:41:53.775Z,32.50
2019-02-28T14:44:22.079Z,32.30
2019-02-28T14:46:53.301Z,32.10
2019-02-28T14:49:19.007Z,31.70
2019-02-28T14:51:47.302Z,32.10
2019-02-28T14:54:16.373Z,32.50
2019-02-28T14:56:44.655Z,32.00
2019-02-28T14:59:12.966Z,32.50
2019-02-28T15:01:41.307Z,32.20
2019-02-28T15:04:09.608Z,32.30
2019-02-28T15:06:38.708Z,32.80
2019-02-28T15:09:07.048Z,32.80
2019-02-28T15:11:35.424Z,33.30
2019-02-28T15:14:05.658Z,32.90
2019-02-28T15:16:32.806Z,33.00
2019-02-28T15:19:01.108Z,32.90
2019-02-28T15:21:30.200Z,33.30
2019-02-28T15:23:58.472Z,33.30
2019-02-28T15:26:29.545Z,33.50
2019-02-28T15:28:56.663Z,33.40
2019-02-28T15:31:25.729Z,33.20
2019-02-28T15:33:54.036Z,33.30
2019-02-28T15:36:24.353Z,33.20
2019-02-28T15:38:51.367Z,33.50
2019-02-28T15:41:19.631Z,33.50
2019-02-28T15:43:50.307Z,33.60
2019-02-28T15:46:17.000Z,34.70
2019-02-28T15:48:45.378Z,34.20
2019-02-28T15:51:13.677Z,34.30
2019-02-28T15:53:41.983Z,34.40
2019-02-28T15:56:13.245Z,34.80
2019-02-28T15:58:41.429Z,35.10
2019-02-28T16:01:07.268Z,35.40
2019-02-28T16:03:35.575Z,35.20
2019-02-28T16:06:03.852Z,35.50
2019-02-28T16:08:33.015Z,35.90
2019-02-28T16:11:03.272Z,35.80
2019-02-28T16:13:30.380Z,36.70
2019-02-28T16:15:58.678Z,36.20
2019-02-28T16:18:26.938Z,36.30
2019-02-28T16:20:55.321Z,36.30
2019-02-28T16:23:27.587Z,36.60
2019-02-28T16:25:51.976Z,36.90
2019-02-28T16:28:20.278Z,36.90
2019-02-28T16:30:49.354Z,36.70
2019-02-28T16:33:20.900Z,36.70
2019-02-28T16:35:46.750Z,36.70
2019-02-28T16:38:15.111Z,36.80
2019-02-28T16:40:44.180Z,36.90
2019-02-28T16:43:12.472Z,36.90
2019-02-28T16:45:41.971Z,37.00
2019-02-28T16:48:10.102Z,37.30
2019-02-28T16:50:38.397Z,37.50
2019-02-28T16:53:06.696Z,37.60
2019-02-28T16:55:35.068Z,37.90
2019-02-28T16:58:03.451Z,40.30
2019-02-28T17:00:31.759Z,39.50
2019-02-28T17:03:04.061Z,38.30
2019-02-28T17:05:29.276Z,38.50
2019-02-28T17:07:57.691Z,38.30
2019-02-28T17:10:27.768Z,38.20
2019-02-28T17:12:59.596Z,37.20
2019-02-28T17:15:26.124Z,37.90
2019-02-28T17:17:55.197Z,39.30
2019-02-28T17:20:23.504Z,39.30
2019-02-28T17:22:51.780Z,39.80
2019-02-28T17:25:21.884Z,40.10
2019-02-28T17:27:52.017Z,40.50
2019-02-28T17:30:21.743Z,40.60
2019-02-28T17:32:50.773Z,40.80
2019-02-28T17:35:19.072Z,40.80
2019-02-28T17:37:48.132Z,40.90
2019-02-28T17:40:16.432Z,40.90
2019-02-28T17:42:46.399Z,40.90
2019-02-28T17:45:16.210Z,41.00
2019-02-28T17:47:44.857Z,41.30
2019-02-28T17:50:18.487Z,40.90
2019-02-28T17:52:53.299Z,40.80
2019-02-28T17:58:47.024Z,41.00
2019-02-28T18:01:39.084Z,41.00
2019-02-28T18:07:11.593Z,41.20
2019-02-28T18:09:49.484Z,41.30
2019-02-28T18:12:30.257Z,41.40
2019-02-28T18:15:08.958Z,41.60
2019-02-28T18:17:47.478Z,41.70
2019-02-28T18:20:52.332Z,41.70
2019-02-28T18:23:27.915Z,41.80
2019-02-28T18:28:58.119Z,41.60
2019-02-28T18:31:25.548Z,41.80
2019-02-28T18:33:54.578Z,41.90
2019-02-28T18:36:23.631Z,42.30
2019-02-28T18:38:51.923Z,42.30
2019-02-28T18:41:20.288Z,42.30
2019-02-28T18:43:48.588Z,42.50
2019-02-28T18:46:17.696Z,42.80
2019-02-28T18:48:46.771Z,43.10
2019-02-28T18:51:16.681Z,43.10
2019-02-28T18:53:43.355Z,43.30
2019-02-28T18:56:11.642Z,43.30
2019-02-28T18:58:39.946Z,43.30
2019-02-28T19:01:08.253Z,43.50
2019-02-28T19:03:37.322Z,44.30
2019-02-28T19:06:05.620Z,44.00
2019-02-28T19:08:33.934Z,44.10
2019-02-28T19:11:02.247Z,44.40
2019-02-28T19:13:31.348Z,45.00
2019-02-28T19:15:59.727Z,45.00
2019-02-28T19:18:28.107Z,45.10
2019-02-28T19:20:56.504Z,45.60
2019-02-28T19:23:24.784Z,46.10
2019-02-28T19:25:53.846Z,46.60
2019-02-28T19:28:22.147Z,46.60
2019-02-28T19:30:50.512Z,46.90
2019-02-28T19:33:18.892Z,47.70
2019-02-28T19:35:47.256Z,48.30
2019-02-28T19:38:15.635Z,49.40
2019-02-28T19:40:44.015Z,49.40
2019-02-28T19:43:12.387Z,49.80
2019-02-28T19:45:40.766Z,50.10
2019-02-28T19:48:09.085Z,51.10
2019-02-28T19:50:37.435Z,51.80
2019-02-28T19:53:05.800Z,52.80
2019-02-28T19:55:34.092Z,53.30
2019-02-28T19:58:02.483Z,53.70
2019-02-28T20:00:30.748Z,54.30
2019-02-28T20:02:59.062Z,54.90
2019-02-28T20:05:27.318Z,55.50
2019-02-28T20:07:56.379Z,56.30
2019-02-28T20:10:24.690Z,56.30
2019-02-28T20:12:53.747Z,56.10
2019-02-28T20:15:22.053Z,56.10
2019-02-28T20:17:51.228Z,56.90
2019-02-28T20:20:20.275Z,56.90
2019-02-28T20:22:48.568Z,56.90
2019-02-28T20:25:16.923Z,57.00
2019-02-28T20:27:45.266Z,57.60
2019-02-28T20:30:21.469Z,57.50
2019-02-28T20:32:49.779Z,57.90
2019-02-28T20:35:26.138Z,58.10
2019-02-28T20:37:47.143Z,58.10
2019-02-28T20:40:24.435Z,58.10
2019-02-28T20:42:52.728Z,58.20
2019-02-28T20:45:21.791Z,59.20
2019-02-28T20:47:50.084Z,58.60
2019-02-28T20:50:21.228Z,59.40
2019-02-28T20:52:49.499Z,60.00
2019-02-28T20:55:17.878Z,60.10
2019-02-28T20:57:46.175Z,60.60
2019-02-28T21:00:15.256Z,60.70
2019-02-28T21:02:43.563Z,60.70
2019-02-28T21:05:12.608Z,60.30
2019-02-28T21:07:40.903Z,60.00
2019-02-28T21:10:09.205Z,61.60
2019-02-28T21:12:37.508Z,63.40
2019-02-28T21:15:07.758Z,64.60
2019-02-28T21:17:36.131Z,65.80
2019-02-28T21:20:05.931Z,66.90
2019-02-28T21:22:34.331Z,68.10
2019-02-28T21:25:02.641Z,68.50
2019-02-28T21:27:30.908Z,69.40
2019-02-28T21:30:00.201Z,71.40
2019-02-28T21:32:28.450Z,71.40
2019-02-28T21:34:56.759Z,72.20
2019-02-28T21:37:26.232Z,73.00
2019-02-28T21:39:54.634Z,72.90
2019-02-28T21:42:23.750Z,73.10
2019-02-28T21:44:52.084Z,73.10
2019-02-28T21:47:20.498Z,73.30
2019-02-28T21:49:48.721Z,73.50
2019-02-28T21:52:17.113Z,73.70
2019-02-28T21:54:45.412Z,73.90
2019-02-28T21:57:14.477Z,73.90
2019-02-28T21:59:42.779Z,73.90
2019-02-28T22:02:11.843Z,75.50
2019-02-28T22:04:40.615Z,75.50
2019-02-28T22:07:09.023Z,75.70
2019-02-28T22:09:37.408Z,75.60
2019-02-28T22:12:05.683Z,76.00
2019-02-28T22:14:33.997Z,76.10
2019-02-28T22:17:03.064Z,76.40
2019-02-28T22:19:31.330Z,76.30
2019-02-28T22:21:59.695Z,75.90
2019-02-28T22:24:27.996Z,76.00
2019-02-28T22:26:57.164Z,76.10
2019-02-28T22:29:25.544Z,76.20
2019-02-28T22:31:56.286Z,75.90
2019-02-28T22:34:25.132Z,76.10
2019-02-28T22:36:53.419Z,75.40
2019-02-28T22:39:21.809Z,74.50
2019-02-28T22:41:50.196Z,73.50
2019-02-28T22:44:18.580Z,73.60
2019-02-28T22:46:46.888Z,73.40
2019-02-28T22:49:15.156Z,72.90
2019-02-28T22:51:44.227Z,72.70
2019-02-28T22:54:12.506Z,72.70
2019-02-28T22:56:40.799Z,73.00
2019-02-28T22:59:09.857Z,72.40
2019-02-28T23:01:38.155Z,72.40
2019-02-28T23:04:06.518Z,71.80
2019-02-28T23:06:34.897Z,71.30
2019-02-28T23:09:03.181Z,70.50
2019-02-28T23:11:31.480Z,69.70
2019-02-28T23:14:00.544Z,68.70
2019-02-28T23:16:28.915Z,68.60
2019-02-28T23:18:57.291Z,68.20
2019-02-28T23:21:25.577Z,67.00
2019-02-28T23:23:53.943Z,66.80
2019-02-28T23:26:24.028Z,66.50
2019-02-28T23:28:52.342Z,66.20
2019-02-28T23:31:35.464Z,65.90
2019-02-28T23:34:06.683Z,65.90
2019-02-28T23:36:34.958Z,66.50
2019-02-28T23:39:03.257Z,67.00
2019-02-28T23:41:31.548Z,66.70
2019-02-28T23:43:59.848Z,66.60
2019-02-28T23:46:28.120Z,65.90
2019-02-28T23:48:57.181Z,65.50
2019-02-28T23:51:25.468Z,65.30
2019-02-28T23:53:53.767Z,64.90
2019-02-28T23:56:22.864Z,64.80
2019-02-28T23:58:51.103Z,64.80
